sensor_id;sensor_type;location;lat;lon;timestamp;P1;durP1;ratioP1;P2;durP2;ratioP2
12818;SDS011;6474;53.474;9.894;2023-07-20T00:01:06;0.70;;;0.70;;
12818;SDS011;6474;53.474;9.894;2023-07-20T00:03:35;0.70;;;0.70;;
12818;SDS011;6474;53.474;9.894;2023-07-20T00:06:05;0.50;;;0.50;;
12818;SDS011;6474;53.474;9.894;2023-07-20T00:11:04;0.60;;;0.60;;
12818;SDS011;6474;53.474;9.894;2023-07-20T00:13:32;0.70;;;0.70;;
12818;SDS011;6474;53.474;9.894;2023-07-20T00:16:01;0.67;;;0.67;;
12818;SDS011;6474;53.474;9.894;2023-07-20T00:18:30;0.50;;;0.50;;
12818;SDS011;6474;53.474;9.894;2023-07-20T00:20:58;0.43;;;0.43;;
12818;SDS011;6474;53.474;9.894;2023-07-20T00:23:28;0.47;;;0.47;;
12818;SDS011;6474;53.474;9.894;2023-07-20T00:25:57;0.40;;;0.40;;
12818;SDS011;6474;53.474;9.894;2023-07-20T00:28:25;1.45;;;0.55;;
12818;SDS011;6474;53.474;9.894;2023-07-20T00:30:54;0.90;;;0.90;;
12818;SDS011;6474;53.474;9.894;2023-07-20T00:33:24;0.90;;;0.90;;
12818;SDS011;6474;53.474;9.894;2023-07-20T00:35:54;0.70;;;0.70;;
12818;SDS011;6474;53.474;9.894;2023-07-20T00:38:23;0.60;;;0.60;;
12818;SDS011;6474;53.474;9.894;2023-07-20T00:40:51;1.70;;;0.70;;
12818;SDS011;6474;53.474;9.894;2023-07-20T00:43:21;0.63;;;0.63;;
12818;SDS011;6474;53.474;9.894;2023-07-20T00:45:49;0.77;;;0.77;;
12818;SDS011;6474;53.474;9.894;2023-07-20T00:48:18;0.60;;;0.60;;
12818;SDS011;6474;53.474;9.894;2023-07-20T00:50:46;0.53;;;0.53;;
12818;SDS011;6474;53.474;9.894;2023-07-20T00:53:15;0.80;;;0.80;;
12818;SDS011;6474;53.474;9.894;2023-07-20T00:55:43;0.73;;;0.73;;
12818;SDS011;6474;53.474;9.894;2023-07-20T00:58:12;0.70;;;0.70;;
12818;SDS011;6474;53.474;9.894;2023-07-20T01:00:44;2.10;;;1.20;;
12818;SDS011;6474;53.474;9.894;2023-07-20T01:03:12;0.67;;;0.67;;
12818;SDS011;6474;53.474;9.894;2023-07-20T01:05:40;1.10;;;1.00;;
12818;SDS011;6474;53.474;9.894;2023-07-20T01:08:15;0.90;;;0.90;;
12818;SDS011;6474;53.474;9.894;2023-07-20T01:10:53;0.97;;;0.97;;
12818;SDS011;6474;53.474;9.894;2023-07-20T01:13:25;5.73;;;0.90;;
12818;SDS011;6474;53.474;9.894;2023-07-20T01:15:57;0.80;;;0.80;;
12818;SDS011;6474;53.474;9.894;2023-07-20T01:18:32;1.00;;;1.00;;
12818;SDS011;6474;53.474;9.894;2023-07-20T01:21:02;1.10;;;1.10;;
12818;SDS011;6474;53.474;9.894;2023-07-20T01:23:39;0.97;;;0.97;;
12818;SDS011;6474;53.474;9.894;2023-07-20T01:26:27;4.00;;;1.00;;
12818;SDS011;6474;53.474;9.894;2023-07-20T01:29:11;1.13;;;1.13;;
12818;SDS011;6474;53.474;9.894;2023-07-20T01:32:01;0.97;;;0.97;;
12818;SDS011;6474;53.474;9.894;2023-07-20T01:34:33;1.10;;;1.10;;
12818;SDS011;6474;53.474;9.894;2023-07-20T01:37:03;0.90;;;0.90;;
12818;SDS011;6474;53.474;9.894;2023-07-20T01:39:32;1.30;;;1.30;;
12818;SDS011;6474;53.474;9.894;2023-07-20T01:42:01;1.30;;;1.30;;
12818;SDS011;6474;53.474;9.894;2023-07-20T01:44:29;1.27;;;1.27;;
12818;SDS011;6474;53.474;9.894;2023-07-20T01:46:57;1.13;;;1.13;;
12818;SDS011;6474;53.474;9.894;2023-07-20T01:49:27;1.13;;;1.13;;
12818;SDS011;6474;53.474;9.894;2023-07-20T01:51:55;3.53;;;1.50;;
12818;SDS011;6474;53.474;9.894;2023-07-20T01:54:25;1.00;;;1.00;;
12818;SDS011;6474;53.474;9.894;2023-07-20T01:56:53;1.20;;;1.20;;
12818;SDS011;6474;53.474;9.894;2023-07-20T01:59:20;0.93;;;0.93;;
12818;SDS011;6474;53.474;9.894;2023-07-20T02:01:49;1.30;;;1.30;;
12818;SDS011;6474;53.474;9.894;2023-07-20T02:04:18;1.47;;;1.47;;
12818;SDS011;6474;53.474;9.894;2023-07-20T02:06:49;1.60;;;1.60;;
12818;SDS011;6474;53.474;9.894;2023-07-20T02:09:18;1.27;;;1.27;;
12818;SDS011;6474;53.474;9.894;2023-07-20T02:11:47;1.40;;;1.40;;
12818;SDS011;6474;53.474;9.894;2023-07-20T02:14:15;1.30;;;1.30;;
12818;SDS011;6474;53.474;9.894;2023-07-20T02:16:43;1.20;;;1.20;;
12818;SDS011;6474;53.474;9.894;2023-07-20T02:19:11;1.30;;;1.30;;
12818;SDS011;6474;53.474;9.894;2023-07-20T02:21:42;1.40;;;1.40;;
12818;SDS011;6474;53.474;9.894;2023-07-20T02:24:13;1.20;;;1.20;;
12818;SDS011;6474;53.474;9.894;2023-07-20T02:26:45;1.33;;;1.23;;
12818;SDS011;6474;53.474;9.894;2023-07-20T02:29:13;1.37;;;1.37;;
12818;SDS011;6474;53.474;9.894;2023-07-20T02:31:43;1.17;;;1.17;;
12818;SDS011;6474;53.474;9.894;2023-07-20T02:34:11;1.40;;;1.40;;
12818;SDS011;6474;53.474;9.894;2023-07-20T02:36:39;1.00;;;1.00;;
12818;SDS011;6474;53.474;9.894;2023-07-20T02:39:08;0.97;;;0.97;;
12818;SDS011;6474;53.474;9.894;2023-07-20T02:41:38;1.03;;;1.03;;
12818;SDS011;6474;53.474;9.894;2023-07-20T02:44:08;1.07;;;1.07;;
12818;SDS011;6474;53.474;9.894;2023-07-20T02:46:36;1.00;;;0.90;;
12818;SDS011;6474;53.474;9.894;2023-07-20T02:49:07;1.00;;;1.00;;
12818;SDS011;6474;53.474;9.894;2023-07-20T02:51:38;0.83;;;0.83;;
12818;SDS011;6474;53.474;9.894;2023-07-20T02:54:05;1.10;;;1.10;;
12818;SDS011;6474;53.474;9.894;2023-07-20T02:56:33;1.07;;;1.00;;
12818;SDS011;6474;53.474;9.894;2023-07-20T02:59:03;0.77;;;0.77;;
12818;SDS011;6474;53.474;9.894;2023-07-20T03:01:32;0.90;;;0.90;;
12818;SDS011;6474;53.474;9.894;2023-07-20T03:04:01;1.10;;;1.10;;
12818;SDS011;6474;53.474;9.894;2023-07-20T03:06:32;1.10;;;1.10;;
12818;SDS011;6474;53.474;9.894;2023-07-20T03:09:02;0.70;;;0.70;;
12818;SDS011;6474;53.474;9.894;2023-07-20T03:11:33;0.93;;;0.93;;
12818;SDS011;6474;53.474;9.894;2023-07-20T03:14:01;1.00;;;1.00;;
12818;SDS011;6474;53.474;9.894;2023-07-20T03:16:30;0.70;;;0.70;;
12818;SDS011;6474;53.474;9.894;2023-07-20T03:18:59;1.10;;;1.10;;
12818;SDS011;6474;53.474;9.894;2023-07-20T03:21:27;1.00;;;1.00;;
12818;SDS011;6474;53.474;9.894;2023-07-20T03:24:00;0.80;;;0.80;;
12818;SDS011;6474;53.474;9.894;2023-07-20T03:26:28;0.63;;;0.63;;
12818;SDS011;6474;53.474;9.894;2023-07-20T03:28:59;1.10;;;1.10;;
12818;SDS011;6474;53.474;9.894;2023-07-20T03:31:28;0.73;;;0.73;;
12818;SDS011;6474;53.474;9.894;2023-07-20T03:33:57;0.57;;;0.57;;
12818;SDS011;6474;53.474;9.894;2023-07-20T03:36:25;0.93;;;0.93;;
12818;SDS011;6474;53.474;9.894;2023-07-20T03:38:53;0.83;;;0.83;;
12818;SDS011;6474;53.474;9.894;2023-07-20T03:41:21;0.70;;;0.70;;
12818;SDS011;6474;53.474;9.894;2023-07-20T03:43:49;1.00;;;1.00;;
12818;SDS011;6474;53.474;9.894;2023-07-20T03:46:17;3.20;;;1.37;;
12818;SDS011;6474;53.474;9.894;2023-07-20T03:48:50;1.00;;;1.00;;
12818;SDS011;6474;53.474;9.894;2023-07-20T03:51:20;0.73;;;0.73;;
12818;SDS011;6474;53.474;9.894;2023-07-20T03:53:48;0.70;;;0.70;;
12818;SDS011;6474;53.474;9.894;2023-07-20T03:56:16;0.70;;;0.70;;
12818;SDS011;6474;53.474;9.894;2023-07-20T03:58:44;0.87;;;0.87;;
12818;SDS011;6474;53.474;9.894;2023-07-20T04:01:12;0.73;;;0.73;;
12818;SDS011;6474;53.474;9.894;2023-07-20T04:03:42;0.80;;;0.80;;
12818;SDS011;6474;53.474;9.894;2023-07-20T04:06:14;0.60;;;0.60;;
12818;SDS011;6474;53.474;9.894;2023-07-20T04:08:45;0.93;;;0.80;;
12818;SDS011;6474;53.474;9.894;2023-07-20T04:11:13;1.00;;;1.00;;
12818;SDS011;6474;53.474;9.894;2023-07-20T04:13:41;1.00;;;0.73;;
12818;SDS011;6474;53.474;9.894;2023-07-20T04:16:09;0.70;;;0.70;;
12818;SDS011;6474;53.474;9.894;2023-07-20T04:18:37;0.80;;;0.80;;
12818;SDS011;6474;53.474;9.894;2023-07-20T04:21:07;0.83;;;0.83;;
12818;SDS011;6474;53.474;9.894;2023-07-20T04:23:35;0.80;;;0.63;;
12818;SDS011;6474;53.474;9.894;2023-07-20T04:26:08;0.60;;;0.60;;
12818;SDS011;6474;53.474;9.894;2023-07-20T04:28:38;0.80;;;0.80;;
12818;SDS011;6474;53.474;9.894;2023-07-20T04:31:12;0.80;;;0.80;;
12818;SDS011;6474;53.474;9.894;2023-07-20T04:33:40;0.77;;;0.77;;
12818;SDS011;6474;53.474;9.894;2023-07-20T04:36:08;0.50;;;0.50;;
12818;SDS011;6474;53.474;9.894;2023-07-20T04:38:36;0.70;;;0.70;;
12818;SDS011;6474;53.474;9.894;2023-07-20T04:41:04;0.70;;;0.70;;
12818;SDS011;6474;53.474;9.894;2023-07-20T04:43:33;0.90;;;0.90;;
12818;SDS011;6474;53.474;9.894;2023-07-20T04:46:01;0.93;;;0.93;;
12818;SDS011;6474;53.474;9.894;2023-07-20T04:48:29;1.30;;;1.30;;
12818;SDS011;6474;53.474;9.894;2023-07-20T04:50:57;0.97;;;0.97;;
12818;SDS011;6474;53.474;9.894;2023-07-20T04:53:25;1.13;;;1.13;;
12818;SDS011;6474;53.474;9.894;2023-07-20T04:55:53;1.20;;;1.20;;
12818;SDS011;6474;53.474;9.894;2023-07-20T04:58:21;1.30;;;1.20;;
12818;SDS011;6474;53.474;9.894;2023-07-20T05:00:51;1.23;;;1.20;;
12818;SDS011;6474;53.474;9.894;2023-07-20T05:03:19;1.20;;;1.20;;
12818;SDS011;6474;53.474;9.894;2023-07-20T05:05:48;1.33;;;1.33;;
12818;SDS011;6474;53.474;9.894;2023-07-20T05:08:16;1.13;;;1.13;;
12818;SDS011;6474;53.474;9.894;2023-07-20T05:10:44;1.00;;;1.00;;
12818;SDS011;6474;53.474;9.894;2023-07-20T05:13:12;1.10;;;1.10;;
12818;SDS011;6474;53.474;9.894;2023-07-20T05:15:42;0.90;;;0.90;;
12818;SDS011;6474;53.474;9.894;2023-07-20T05:18:12;1.25;;;1.25;;
12818;SDS011;6474;53.474;9.894;2023-07-20T05:20:46;1.53;;;1.53;;
12818;SDS011;6474;53.474;9.894;2023-07-20T05:23:14;1.43;;;1.43;;
12818;SDS011;6474;53.474;9.894;2023-07-20T05:25:46;1.63;;;1.57;;
12818;SDS011;6474;53.474;9.894;2023-07-20T05:28:14;1.20;;;1.20;;
12818;SDS011;6474;53.474;9.894;2023-07-20T05:30:42;1.40;;;1.40;;
12818;SDS011;6474;53.474;9.894;2023-07-20T05:33:12;1.30;;;1.30;;
12818;SDS011;6474;53.474;9.894;2023-07-20T05:35:39;1.20;;;1.20;;
12818;SDS011;6474;53.474;9.894;2023-07-20T05:38:08;2.53;;;1.40;;
12818;SDS011;6474;53.474;9.894;2023-07-20T05:40:37;1.20;;;1.20;;
12818;SDS011;6474;53.474;9.894;2023-07-20T05:43:05;1.53;;;1.53;;
12818;SDS011;6474;53.474;9.894;2023-07-20T05:45:33;1.47;;;1.47;;
12818;SDS011;6474;53.474;9.894;2023-07-20T05:48:01;1.20;;;1.20;;
12818;SDS011;6474;53.474;9.894;2023-07-20T05:50:30;1.50;;;1.40;;
12818;SDS011;6474;53.474;9.894;2023-07-20T05:52:58;1.10;;;1.10;;
12818;SDS011;6474;53.474;9.894;2023-07-20T05:55:26;2.03;;;1.17;;
12818;SDS011;6474;53.474;9.894;2023-07-20T05:57:54;1.33;;;1.33;;
12818;SDS011;6474;53.474;9.894;2023-07-20T06:00:22;1.40;;;1.40;;
12818;SDS011;6474;53.474;9.894;2023-07-20T06:02:53;1.10;;;1.10;;
12818;SDS011;6474;53.474;9.894;2023-07-20T06:05:21;1.03;;;1.03;;
12818;SDS011;6474;53.474;9.894;2023-07-20T06:07:55;1.10;;;1.10;;
12818;SDS011;6474;53.474;9.894;2023-07-20T06:10:24;1.00;;;1.00;;
12818;SDS011;6474;53.474;9.894;2023-07-20T06:12:53;2.00;;;1.20;;
12818;SDS011;6474;53.474;9.894;2023-07-20T06:15:25;0.88;;;0.88;;
12818;SDS011;6474;53.474;9.894;2023-07-20T06:17:55;0.80;;;0.80;;
12818;SDS011;6474;53.474;9.894;2023-07-20T06:20:24;0.80;;;0.80;;
12818;SDS011;6474;53.474;9.894;2023-07-20T06:22:53;1.02;;;1.02;;
12818;SDS011;6474;53.474;9.894;2023-07-20T06:25:22;2.57;;;1.03;;
12818;SDS011;6474;53.474;9.894;2023-07-20T06:27:50;0.88;;;0.88;;
12818;SDS011;6474;53.474;9.894;2023-07-20T06:30:18;0.60;;;0.60;;
12818;SDS011;6474;53.474;9.894;2023-07-20T06:32:46;0.60;;;0.60;;
12818;SDS011;6474;53.474;9.894;2023-07-20T06:35:15;0.80;;;0.80;;
12818;SDS011;6474;53.474;9.894;2023-07-20T06:37:44;6.03;;;0.63;;
12818;SDS011;6474;53.474;9.894;2023-07-20T06:40:14;0.65;;;0.65;;
12818;SDS011;6474;53.474;9.894;2023-07-20T06:42:45;0.52;;;0.52;;
12818;SDS011;6474;53.474;9.894;2023-07-20T06:45:15;0.70;;;0.70;;
12818;SDS011;6474;53.474;9.894;2023-07-20T06:47:43;3.03;;;0.80;;
12818;SDS011;6474;53.474;9.894;2023-07-20T06:50:12;0.80;;;0.80;;
12818;SDS011;6474;53.474;9.894;2023-07-20T06:52:43;0.60;;;0.60;;
12818;SDS011;6474;53.474;9.894;2023-07-20T06:55:15;0.57;;;0.57;;
12818;SDS011;6474;53.474;9.894;2023-07-20T06:57:49;0.52;;;0.52;;
12818;SDS011;6474;53.474;9.894;2023-07-20T07:00:17;0.60;;;0.60;;
12818;SDS011;6474;53.474;9.894;2023-07-20T07:02:45;0.80;;;0.80;;
12818;SDS011;6474;53.474;9.894;2023-07-20T07:05:16;0.80;;;0.80;;
12818;SDS011;6474;53.474;9.894;2023-07-20T07:07:46;0.50;;;0.50;;
12818;SDS011;6474;53.474;9.894;2023-07-20T07:10:16;0.60;;;0.60;;
12818;SDS011;6474;53.474;9.894;2023-07-20T07:12:44;2.45;;;0.77;;
12818;SDS011;6474;53.474;9.894;2023-07-20T07:15:12;2.30;;;0.73;;
12818;SDS011;6474;53.474;9.894;2023-07-20T07:17:40;1.52;;;1.45;;
12818;SDS011;6474;53.474;9.894;2023-07-20T07:20:11;2.97;;;0.88;;
12818;SDS011;6474;53.474;9.894;2023-07-20T07:22:46;0.68;;;0.68;;
12818;SDS011;6474;53.474;9.894;2023-07-20T07:25:17;0.68;;;0.68;;
12818;SDS011;6474;53.474;9.894;2023-07-20T07:27:50;0.60;;;0.60;;
12818;SDS011;6474;53.474;9.894;2023-07-20T07:30:20;10.15;;;0.75;;
12818;SDS011;6474;53.474;9.894;2023-07-20T07:32:48;0.60;;;0.60;;
12818;SDS011;6474;53.474;9.894;2023-07-20T07:35:19;0.40;;;0.40;;
12818;SDS011;6474;53.474;9.894;2023-07-20T07:37:47;0.77;;;0.77;;
12818;SDS011;6474;53.474;9.894;2023-07-20T07:40:19;0.40;;;0.40;;
12818;SDS011;6474;53.474;9.894;2023-07-20T07:42:47;1.08;;;0.60;;
12818;SDS011;6474;53.474;9.894;2023-07-20T07:45:15;0.43;;;0.43;;
12818;SDS011;6474;53.474;9.894;2023-07-20T07:47:43;0.80;;;0.80;;
12818;SDS011;6474;53.474;9.894;2023-07-20T07:50:12;0.50;;;0.50;;
12818;SDS011;6474;53.474;9.894;2023-07-20T07:52:40;0.63;;;0.63;;
12818;SDS011;6474;53.474;9.894;2023-07-20T07:55:08;0.45;;;0.45;;
12818;SDS011;6474;53.474;9.894;2023-07-20T07:57:37;2.08;;;1.15;;
12818;SDS011;6474;53.474;9.894;2023-07-20T08:00:06;2.33;;;0.77;;
12818;SDS011;6474;53.474;9.894;2023-07-20T08:02:41;0.70;;;0.70;;
12818;SDS011;6474;53.474;9.894;2023-07-20T08:05:10;0.80;;;0.80;;
12818;SDS011;6474;53.474;9.894;2023-07-20T08:07:38;0.70;;;0.70;;
12818;SDS011;6474;53.474;9.894;2023-07-20T08:10:07;1.08;;;1.00;;
12818;SDS011;6474;53.474;9.894;2023-07-20T08:12:36;1.02;;;0.90;;
12818;SDS011;6474;53.474;9.894;2023-07-20T08:15:05;0.70;;;0.70;;
12818;SDS011;6474;53.474;9.894;2023-07-20T08:17:34;1.15;;;1.05;;
12818;SDS011;6474;53.474;9.894;2023-07-20T08:20:02;0.55;;;0.55;;
12818;SDS011;6474;53.474;9.894;2023-07-20T08:22:32;0.85;;;0.85;;
12818;SDS011;6474;53.474;9.894;2023-07-20T08:25:00;0.52;;;0.52;;
12818;SDS011;6474;53.474;9.894;2023-07-20T08:27:28;1.70;;;0.75;;
12818;SDS011;6474;53.474;9.894;2023-07-20T08:29:57;0.70;;;0.70;;
12818;SDS011;6474;53.474;9.894;2023-07-20T08:32:26;0.60;;;0.60;;
12818;SDS011;6474;53.474;9.894;2023-07-20T08:34:54;0.60;;;0.60;;
12818;SDS011;6474;53.474;9.894;2023-07-20T08:37:22;0.98;;;0.98;;
12818;SDS011;6474;53.474;9.894;2023-07-20T08:39:49;0.93;;;0.93;;
12818;SDS011;6474;53.474;9.894;2023-07-20T08:42:17;0.57;;;0.57;;
12818;SDS011;6474;53.474;9.894;2023-07-20T08:44:45;0.95;;;0.95;;
12818;SDS011;6474;53.474;9.894;2023-07-20T08:47:17;0.73;;;0.73;;
12818;SDS011;6474;53.474;9.894;2023-07-20T08:49:46;0.50;;;0.50;;
12818;SDS011;6474;53.474;9.894;2023-07-20T08:52:16;0.80;;;0.80;;
12818;SDS011;6474;53.474;9.894;2023-07-20T08:54:44;0.82;;;0.82;;
12818;SDS011;6474;53.474;9.894;2023-07-20T08:57:13;0.93;;;0.93;;
12818;SDS011;6474;53.474;9.894;2023-07-20T08:59:41;2.00;;;0.77;;
12818;SDS011;6474;53.474;9.894;2023-07-20T09:02:11;0.65;;;0.65;;
12818;SDS011;6474;53.474;9.894;2023-07-20T09:04:45;0.93;;;0.93;;
12818;SDS011;6474;53.474;9.894;2023-07-20T09:07:13;1.45;;;1.00;;
12818;SDS011;6474;53.474;9.894;2023-07-20T09:09:41;2.55;;;1.15;;
12818;SDS011;6474;53.474;9.894;2023-07-20T09:12:12;1.42;;;1.33;;
12818;SDS011;6474;53.474;9.894;2023-07-20T09:14:42;0.82;;;0.82;;
12818;SDS011;6474;53.474;9.894;2023-07-20T09:17:12;0.68;;;0.68;;
12818;SDS011;6474;53.474;9.894;2023-07-20T09:19:48;1.10;;;1.10;;
12818;SDS011;6474;53.474;9.894;2023-07-20T09:22:16;1.40;;;1.30;;
12818;SDS011;6474;53.474;9.894;2023-07-20T09:24:44;1.92;;;1.02;;
12818;SDS011;6474;53.474;9.894;2023-07-20T09:27:12;2.35;;;0.68;;
12818;SDS011;6474;53.474;9.894;2023-07-20T09:29:49;0.60;;;0.60;;
12818;SDS011;6474;53.474;9.894;2023-07-20T09:32:18;1.35;;;0.82;;
12818;SDS011;6474;53.474;9.894;2023-07-20T09:34:52;2.05;;;0.77;;
12818;SDS011;6474;53.474;9.894;2023-07-20T09:37:20;0.60;;;0.60;;
12818;SDS011;6474;53.474;9.894;2023-07-20T09:39:50;0.73;;;0.73;;
12818;SDS011;6474;53.474;9.894;2023-07-20T09:42:22;0.60;;;0.60;;
12818;SDS011;6474;53.474;9.894;2023-07-20T09:44:54;0.35;;;0.35;;
12818;SDS011;6474;53.474;9.894;2023-07-20T09:47:24;0.40;;;0.40;;
12818;SDS011;6474;53.474;9.894;2023-07-20T09:49:59;0.47;;;0.47;;
12818;SDS011;6474;53.474;9.894;2023-07-20T09:52:30;0.45;;;0.45;;
12818;SDS011;6474;53.474;9.894;2023-07-20T09:55:01;2.05;;;0.60;;
12818;SDS011;6474;53.474;9.894;2023-07-20T09:57:31;0.60;;;0.60;;
12818;SDS011;6474;53.474;9.894;2023-07-20T10:00:00;1.10;;;0.50;;
12818;SDS011;6474;53.474;9.894;2023-07-20T10:02:34;0.60;;;0.60;;
12818;SDS011;6474;53.474;9.894;2023-07-20T10:05:10;0.40;;;0.40;;
12818;SDS011;6474;53.474;9.894;2023-07-20T10:07:43;0.80;;;0.77;;
12818;SDS011;6474;53.474;9.894;2023-07-20T10:10:14;0.65;;;0.65;;
12818;SDS011;6474;53.474;9.894;2023-07-20T10:12:43;1.77;;;0.60;;
12818;SDS011;6474;53.474;9.894;2023-07-20T10:15:18;0.82;;;0.38;;
12818;SDS011;6474;53.474;9.894;2023-07-20T10:17:53;4.60;;;0.60;;
12818;SDS011;6474;53.474;9.894;2023-07-20T10:20:26;1.15;;;0.90;;
12818;SDS011;6474;53.474;9.894;2023-07-20T10:22:57;2.25;;;0.77;;
12818;SDS011;6474;53.474;9.894;2023-07-20T10:25:27;3.30;;;0.82;;
12818;SDS011;6474;53.474;9.894;2023-07-20T10:27:56;0.40;;;0.40;;
12818;SDS011;6474;53.474;9.894;2023-07-20T10:30:24;0.47;;;0.47;;
12818;SDS011;6474;53.474;9.894;2023-07-20T10:32:54;2.58;;;0.60;;
12818;SDS011;6474;53.474;9.894;2023-07-20T10:35:22;0.70;;;0.70;;
12818;SDS011;6474;53.474;9.894;2023-07-20T10:37:52;0.57;;;0.57;;
12818;SDS011;6474;53.474;9.894;2023-07-20T10:40:25;0.60;;;0.60;;
12818;SDS011;6474;53.474;9.894;2023-07-20T10:42:56;0.40;;;0.40;;
12818;SDS011;6474;53.474;9.894;2023-07-20T10:45:36;0.73;;;0.50;;
12818;SDS011;6474;53.474;9.894;2023-07-20T10:48:14;5.47;;;0.70;;
12818;SDS011;6474;53.474;9.894;2023-07-20T10:50:43;0.50;;;0.50;;
12818;SDS011;6474;53.474;9.894;2023-07-20T10:53:14;0.38;;;0.38;;
12818;SDS011;6474;53.474;9.894;2023-07-20T10:55:43;0.38;;;0.38;;
12818;SDS011;6474;53.474;9.894;2023-07-20T10:58:13;0.55;;;0.55;;
12818;SDS011;6474;53.474;9.894;2023-07-20T11:00:55;0.35;;;0.35;;
12818;SDS011;6474;53.474;9.894;2023-07-20T11:03:30;0.50;;;0.50;;
12818;SDS011;6474;53.474;9.894;2023-07-20T11:09:06;0.22;;;0.22;;
12818;SDS011;6474;53.474;9.894;2023-07-20T11:11:37;0.20;;;0.20;;
12818;SDS011;6474;53.474;9.894;2023-07-20T11:14:06;0.20;;;0.20;;
12818;SDS011;6474;53.474;9.894;2023-07-20T11:16:36;0.10;;;0.10;;
12818;SDS011;6474;53.474;9.894;2023-07-20T11:19:14;0.10;;;0.10;;
12818;SDS011;6474;53.474;9.894;2023-07-20T11:21:47;1.00;;;0.20;;
12818;SDS011;6474;53.474;9.894;2023-07-20T11:24:29;0.35;;;0.35;;
12818;SDS011;6474;53.474;9.894;2023-07-20T11:26:58;0.20;;;0.20;;
12818;SDS011;6474;53.474;9.894;2023-07-20T11:29:27;3.20;;;0.57;;
12818;SDS011;6474;53.474;9.894;2023-07-20T11:31:59;0.40;;;0.40;;
12818;SDS011;6474;53.474;9.894;2023-07-20T11:34:31;0.35;;;0.35;;
12818;SDS011;6474;53.474;9.894;2023-07-20T11:37:00;0.30;;;0.30;;
12818;SDS011;6474;53.474;9.894;2023-07-20T11:39:34;0.32;;;0.32;;
12818;SDS011;6474;53.474;9.894;2023-07-20T11:42:02;0.40;;;0.38;;
12818;SDS011;6474;53.474;9.894;2023-07-20T11:44:31;0.43;;;0.43;;
12818;SDS011;6474;53.474;9.894;2023-07-20T11:46:59;0.40;;;0.40;;
12818;SDS011;6474;53.474;9.894;2023-07-20T11:49:29;1.98;;;0.40;;
12818;SDS011;6474;53.474;9.894;2023-07-20T11:52:00;0.40;;;0.40;;
12818;SDS011;6474;53.474;9.894;2023-07-20T11:54:28;0.55;;;0.45;;
12818;SDS011;6474;53.474;9.894;2023-07-20T11:57:01;0.25;;;0.25;;
12818;SDS011;6474;53.474;9.894;2023-07-20T11:59:30;0.38;;;0.38;;
12818;SDS011;6474;53.474;9.894;2023-07-20T12:01:58;0.35;;;0.35;;
12818;SDS011;6474;53.474;9.894;2023-07-20T12:04:30;0.30;;;0.30;;
12818;SDS011;6474;53.474;9.894;2023-07-20T12:06:59;0.35;;;0.35;;
12818;SDS011;6474;53.474;9.894;2023-07-20T12:09:27;0.40;;;0.40;;
12818;SDS011;6474;53.474;9.894;2023-07-20T12:12:18;0.50;;;0.50;;
12818;SDS011;6474;53.474;9.894;2023-07-20T12:14:46;0.22;;;0.22;;
12818;SDS011;6474;53.474;9.894;2023-07-20T12:17:14;1.55;;;0.75;;
12818;SDS011;6474;53.474;9.894;2023-07-20T12:19:42;0.40;;;0.40;;
12818;SDS011;6474;53.474;9.894;2023-07-20T12:22:10;1.10;;;0.60;;
12818;SDS011;6474;53.474;9.894;2023-07-20T12:24:38;0.40;;;0.40;;
12818;SDS011;6474;53.474;9.894;2023-07-20T12:27:06;4.82;;;0.60;;
12818;SDS011;6474;53.474;9.894;2023-07-20T12:29:35;0.30;;;0.30;;
12818;SDS011;6474;53.474;9.894;2023-07-20T12:32:04;0.35;;;0.25;;
12818;SDS011;6474;53.474;9.894;2023-07-20T12:34:33;0.30;;;0.30;;
12818;SDS011;6474;53.474;9.894;2023-07-20T12:37:03;0.30;;;0.30;;
12818;SDS011;6474;53.474;9.894;2023-07-20T12:39:32;0.35;;;0.35;;
12818;SDS011;6474;53.474;9.894;2023-07-20T12:42:00;0.50;;;0.50;;
12818;SDS011;6474;53.474;9.894;2023-07-20T12:44:31;0.25;;;0.25;;
12818;SDS011;6474;53.474;9.894;2023-07-20T12:47:01;0.43;;;0.43;;
12818;SDS011;6474;53.474;9.894;2023-07-20T12:49:29;0.30;;;0.30;;
12818;SDS011;6474;53.474;9.894;2023-07-20T12:51:57;0.30;;;0.30;;
12818;SDS011;6474;53.474;9.894;2023-07-20T12:54:25;1.10;;;0.47;;
12818;SDS011;6474;53.474;9.894;2023-07-20T12:56:55;0.47;;;0.47;;
12818;SDS011;6474;53.474;9.894;2023-07-20T12:59:26;0.32;;;0.22;;
12818;SDS011;6474;53.474;9.894;2023-07-20T13:01:55;0.40;;;0.40;;
12818;SDS011;6474;53.474;9.894;2023-07-20T13:04:24;0.65;;;0.50;;
12818;SDS011;6474;53.474;9.894;2023-07-20T13:06:52;0.43;;;0.43;;
12818;SDS011;6474;53.474;9.894;2023-07-20T13:09:21;0.32;;;0.32;;
12818;SDS011;6474;53.474;9.894;2023-07-20T13:11:49;4.53;;;0.43;;
12818;SDS011;6474;53.474;9.894;2023-07-20T13:14:17;0.20;;;0.20;;
12818;SDS011;6474;53.474;9.894;2023-07-20T13:16:45;0.65;;;0.22;;
12818;SDS011;6474;53.474;9.894;2023-07-20T13:19:13;0.13;;;0.13;;
12818;SDS011;6474;53.474;9.894;2023-07-20T13:21:44;0.22;;;0.22;;
12818;SDS011;6474;53.474;9.894;2023-07-20T13:24:12;1.15;;;0.32;;
12818;SDS011;6474;53.474;9.894;2023-07-20T13:26:39;0.17;;;0.17;;
12818;SDS011;6474;53.474;9.894;2023-07-20T13:29:18;0.20;;;0.20;;
12818;SDS011;6474;53.474;9.894;2023-07-20T13:32:01;3.20;;;0.20;;
12818;SDS011;6474;53.474;9.894;2023-07-20T13:34:30;1.00;;;0.30;;
12818;SDS011;6474;53.474;9.894;2023-07-20T13:36:59;0.30;;;0.30;;
12818;SDS011;6474;53.474;9.894;2023-07-20T13:39:27;0.40;;;0.40;;
12818;SDS011;6474;53.474;9.894;2023-07-20T13:41:55;1.05;;;0.40;;
12818;SDS011;6474;53.474;9.894;2023-07-20T13:44:23;3.83;;;0.28;;
12818;SDS011;6474;53.474;9.894;2023-07-20T13:46:51;0.30;;;0.30;;
12818;SDS011;6474;53.474;9.894;2023-07-20T13:49:39;0.30;;;0.30;;
12818;SDS011;6474;53.474;9.894;2023-07-20T13:52:11;0.30;;;0.20;;
12818;SDS011;6474;53.474;9.894;2023-07-20T13:54:43;0.63;;;0.50;;
12818;SDS011;6474;53.474;9.894;2023-07-20T13:57:16;0.60;;;0.60;;
12818;SDS011;6474;53.474;9.894;2023-07-20T13:59:44;0.55;;;0.40;;
12818;SDS011;6474;53.474;9.894;2023-07-20T14:02:13;0.95;;;0.30;;
12818;SDS011;6474;53.474;9.894;2023-07-20T14:04:45;0.40;;;0.30;;
12818;SDS011;6474;53.474;9.894;2023-07-20T14:07:17;0.65;;;0.60;;
12818;SDS011;6474;53.474;9.894;2023-07-20T14:09:45;0.38;;;0.38;;
12818;SDS011;6474;53.474;9.894;2023-07-20T14:12:16;2.90;;;0.30;;
12818;SDS011;6474;53.474;9.894;2023-07-20T14:14:45;0.32;;;0.32;;
12818;SDS011;6474;53.474;9.894;2023-07-20T14:17:13;2.17;;;0.20;;
12818;SDS011;6474;53.474;9.894;2023-07-20T14:19:41;0.47;;;0.47;;
12818;SDS011;6474;53.474;9.894;2023-07-20T14:22:09;4.75;;;0.43;;
12818;SDS011;6474;53.474;9.894;2023-07-20T14:24:39;1.15;;;0.68;;
12818;SDS011;6474;53.474;9.894;2023-07-20T14:27:07;1.45;;;0.30;;
12818;SDS011;6474;53.474;9.894;2023-07-20T14:29:35;0.40;;;0.40;;
12818;SDS011;6474;53.474;9.894;2023-07-20T14:32:03;0.45;;;0.45;;
12818;SDS011;6474;53.474;9.894;2023-07-20T14:34:33;1.55;;;0.32;;
12818;SDS011;6474;53.474;9.894;2023-07-20T14:37:05;0.30;;;0.30;;
12818;SDS011;6474;53.474;9.894;2023-07-20T14:39:35;0.40;;;0.40;;
12818;SDS011;6474;53.474;9.894;2023-07-20T14:42:04;0.38;;;0.38;;
12818;SDS011;6474;53.474;9.894;2023-07-20T14:44:33;0.25;;;0.22;;
12818;SDS011;6474;53.474;9.894;2023-07-20T14:47:03;0.20;;;0.20;;
12818;SDS011;6474;53.474;9.894;2023-07-20T14:49:40;0.40;;;0.40;;
12818;SDS011;6474;53.474;9.894;2023-07-20T14:52:08;0.50;;;0.50;;
12818;SDS011;6474;53.474;9.894;2023-07-20T14:54:39;0.40;;;0.40;;
12818;SDS011;6474;53.474;9.894;2023-07-20T14:57:08;0.57;;;0.57;;
12818;SDS011;6474;53.474;9.894;2023-07-20T14:59:41;0.35;;;0.35;;
12818;SDS011;6474;53.474;9.894;2023-07-20T15:02:10;1.42;;;0.80;;
12818;SDS011;6474;53.474;9.894;2023-07-20T15:04:44;0.85;;;0.43;;
12818;SDS011;6474;53.474;9.894;2023-07-20T15:07:13;0.52;;;0.40;;
12818;SDS011;6474;53.474;9.894;2023-07-20T15:09:41;1.80;;;0.38;;
12818;SDS011;6474;53.474;9.894;2023-07-20T15:12:13;1.23;;;0.30;;
12818;SDS011;6474;53.474;9.894;2023-07-20T15:14:42;0.47;;;0.47;;
12818;SDS011;6474;53.474;9.894;2023-07-20T15:17:10;0.55;;;0.50;;
12818;SDS011;6474;53.474;9.894;2023-07-20T15:19:38;0.28;;;0.28;;
12818;SDS011;6474;53.474;9.894;2023-07-20T15:22:07;0.50;;;0.50;;